createdAt,value
2023-05-18T00:00:41.313Z,93058.00
2023-05-18T00:01:41.365Z,93058.00
2023-05-18T00:02:41.375Z,93060.00
2023-05-18T00:03:41.429Z,93060.00
2023-05-18T00:04:41.344Z,93058.00
2023-05-18T00:05:41.336Z,93058.00
2023-05-18T00:06:41.348Z,93058.00
2023-05-18T00:07:41.356Z,93060.00
2023-05-18T00:08:41.372Z,93060.00
2023-05-18T00:09:41.668Z,93060.00
2023-05-18T00:10:41.393Z,93060.00
2023-05-18T00:11:41.404Z,93060.00
2023-05-18T00:12:41.396Z,93060.00
2023-05-18T00:13:41.408Z,93058.00
2023-05-18T00:14:41.401Z,93060.00
2023-05-18T00:15:41.396Z,93058.00
2023-05-18T00:16:41.515Z,93054.00
2023-05-18T00:17:41.455Z,93054.00
2023-05-18T00:18:41.461Z,93056.00
2023-05-18T00:19:41.417Z,93056.00
2023-05-18T00:20:41.430Z,93056.00
2023-05-18T00:21:41.434Z,93054.00
2023-05-18T00:22:41.440Z,93056.00
2023-05-18T00:23:41.447Z,93054.00
2023-05-18T00:24:41.449Z,93054.00
2023-05-18T00:25:41.435Z,93054.00
2023-05-18T00:26:41.450Z,93054.00
2023-05-18T00:27:41.450Z,93054.00
2023-05-18T00:28:41.538Z,93054.00
2023-05-18T00:29:41.489Z,93052.00
2023-05-18T00:30:41.489Z,93052.00
2023-05-18T00:31:41.515Z,93048.00
2023-05-18T00:32:41.511Z,93050.00
2023-05-18T00:33:41.478Z,93048.00
2023-05-18T00:34:41.542Z,93048.00
2023-05-18T00:35:41.499Z,93048.00
2023-05-18T00:36:41.482Z,93046.00
2023-05-18T00:37:41.486Z,93046.00
2023-05-18T00:38:41.486Z,93044.00
2023-05-18T00:39:41.480Z,93046.00
2023-05-18T00:40:41.495Z,93042.00
2023-05-18T00:41:41.548Z,93044.00
2023-05-18T00:42:41.499Z,93042.00
2023-05-18T00:43:41.500Z,93042.00
2023-05-18T00:44:41.488Z,93042.00
2023-05-18T00:45:41.521Z,93042.00
2023-05-18T00:46:41.496Z,93038.00
2023-05-18T00:47:41.534Z,93040.00
2023-05-18T00:48:41.490Z,93036.00
2023-05-18T00:49:41.495Z,93042.00
2023-05-18T00:50:41.556Z,93038.00
2023-05-18T00:51:41.500Z,93036.00
2023-05-18T00:52:41.501Z,93036.00
2023-05-18T00:53:43.977Z,93034.00
2023-05-18T00:54:41.724Z,93036.00
2023-05-18T00:55:41.718Z,93036.00
2023-05-18T00:56:41.788Z,93036.00
2023-05-18T00:57:41.733Z,93032.00
2023-05-18T00:58:41.735Z,93034.00
2023-05-18T00:59:41.743Z,93032.00
2023-05-18T01:00:41.742Z,93034.00
2023-05-18T01:01:41.754Z,93032.00
2023-05-18T01:02:41.834Z,93028.00
2023-05-18T01:03:41.835Z,93026.00
2023-05-18T01:04:41.759Z,93028.00
2023-05-18T01:05:41.759Z,93028.00
2023-05-18T01:06:41.783Z,93026.00
2023-05-18T01:07:41.814Z,93024.00
2023-05-18T01:08:41.751Z,93026.00
2023-05-18T01:09:41.763Z,93026.00
2023-05-18T01:10:41.758Z,93024.00
2023-05-18T01:11:41.858Z,93024.00
2023-05-18T01:12:41.763Z,93024.00
2023-05-18T01:13:41.826Z,93022.00
2023-05-18T01:14:41.770Z,93024.00
2023-05-18T01:15:41.833Z,93022.00
2023-05-18T01:16:41.919Z,93018.00
2023-05-18T01:17:41.793Z,93018.00
2023-05-18T01:18:41.867Z,93020.00
2023-05-18T01:19:41.805Z,93020.00
2023-05-18T01:20:41.771Z,93020.00
2023-05-18T01:21:41.768Z,93018.00
2023-05-18T01:22:41.770Z,93015.00
2023-05-18T01:23:41.764Z,93015.00
2023-05-18T01:24:41.780Z,93015.00
2023-05-18T01:25:41.758Z,93015.00
2023-05-18T01:26:41.772Z,93013.00
2023-05-18T01:27:41.762Z,93013.00
2023-05-18T01:28:41.766Z,93013.00
2023-05-18T01:29:41.774Z,93015.00
2023-05-18T01:30:41.806Z,93013.00
2023-05-18T01:31:41.777Z,93011.00
2023-05-18T01:32:41.870Z,93011.00
2023-05-18T01:33:41.772Z,93011.00
2023-05-18T01:34:42.212Z,93011.00
2023-05-18T01:35:41.777Z,93007.00
2023-05-18T01:36:41.786Z,93009.00
2023-05-18T01:37:41.780Z,93013.00
2023-05-18T01:38:43.936Z,93009.00
2023-05-18T01:39:41.943Z,93009.00
2023-05-18T01:40:41.927Z,93009.00
2023-05-18T01:41:41.940Z,93009.00
2023-05-18T01:42:41.939Z,93007.00
2023-05-18T01:43:41.943Z,93007.00
2023-05-18T01:44:41.938Z,93007.00
2023-05-18T01:45:41.945Z,93007.00
2023-05-18T01:46:41.986Z,93005.00
2023-05-18T01:47:41.951Z,93005.00
2023-05-18T01:48:41.946Z,93005.00
2023-05-18T01:49:41.926Z,93005.00
2023-05-18T01:50:41.924Z,93001.00
2023-05-18T01:51:41.924Z,92999.00
2023-05-18T01:52:41.940Z,92999.00
2023-05-18T01:53:41.929Z,92997.00
2023-05-18T01:54:41.938Z,92995.00
2023-05-18T01:55:42.003Z,92993.00
2023-05-18T01:56:41.951Z,92993.00
2023-05-18T01:57:41.932Z,92993.00
2023-05-18T01:58:41.985Z,92995.00
2023-05-18T01:59:41.933Z,92995.00
2023-05-18T02:00:41.937Z,92993.00
2023-05-18T02:01:42.032Z,92993.00
2023-05-18T02:02:42.047Z,92989.00
2023-05-18T02:03:42.086Z,92993.00
2023-05-18T02:04:41.949Z,92995.00
2023-05-18T02:05:42.000Z,92995.00
2023-05-18T02:06:41.954Z,92991.00
2023-05-18T02:07:41.966Z,92991.00
2023-05-18T02:08:41.967Z,92989.00
2023-05-18T02:09:42.032Z,92987.00
2023-05-18T02:10:42.000Z,92989.00
2023-05-18T02:11:41.988Z,92989.00
2023-05-18T02:12:42.034Z,92987.00
2023-05-18T02:13:42.013Z,92985.00
2023-05-18T02:14:42.044Z,92985.00
2023-05-18T02:15:42.029Z,92985.00
2023-05-18T02:16:42.081Z,92983.00
2023-05-18T02:17:42.097Z,92981.00
2023-05-18T02:18:42.081Z,92981.00
2023-05-18T02:19:42.076Z,92981.00
2023-05-18T02:20:42.094Z,92981.00
2023-05-18T02:21:42.083Z,92979.00
2023-05-18T02:22:42.101Z,92979.00
2023-05-18T02:23:42.120Z,92977.00
2023-05-18T02:24:42.103Z,92977.00
2023-05-18T02:25:42.101Z,92977.00
2023-05-18T02:26:42.099Z,92977.00
2023-05-18T02:27:42.087Z,92979.00
2023-05-18T02:28:42.101Z,92979.00
2023-05-18T02:29:42.103Z,92981.00
2023-05-18T02:30:42.099Z,92977.00
2023-05-18T02:31:42.301Z,92977.00
2023-05-18T02:32:42.206Z,92977.00
2023-05-18T02:33:42.111Z,92977.00
2023-05-18T02:34:42.140Z,92977.00
2023-05-18T02:35:42.109Z,92975.00
2023-05-18T02:36:42.123Z,92977.00
2023-05-18T02:37:42.112Z,92975.00
2023-05-18T02:38:42.728Z,92975.00
2023-05-18T02:39:42.117Z,92975.00
2023-05-18T02:40:42.113Z,92977.00
2023-05-18T02:41:42.113Z,92971.00
2023-05-18T02:42:42.117Z,92975.00
2023-05-18T02:43:42.109Z,92971.00
2023-05-18T02:44:42.134Z,92973.00
2023-05-18T02:45:42.148Z,92975.00
2023-05-18T02:46:42.125Z,92973.00
2023-05-18T02:47:42.185Z,92971.00
2023-05-18T02:48:42.128Z,92969.00
2023-05-18T02:49:42.140Z,92969.00
2023-05-18T02:50:42.135Z,92969.00
2023-05-18T02:51:42.152Z,92967.00
2023-05-18T02:52:42.185Z,92969.00
2023-05-18T02:53:42.147Z,92969.00
2023-05-18T02:54:42.177Z,92969.00
2023-05-18T02:55:42.174Z,92967.00
2023-05-18T02:56:42.170Z,92969.00
2023-05-18T02:57:42.193Z,92967.00
2023-05-18T02:58:42.196Z,92969.00
2023-05-18T02:59:42.207Z,92969.00
2023-05-18T03:00:42.223Z,92969.00
2023-05-18T03:01:42.307Z,92971.00
2023-05-18T03:02:42.359Z,92971.00
2023-05-18T03:03:42.511Z,92971.00
2023-05-18T03:04:42.256Z,92971.00
2023-05-18T03:05:42.270Z,92971.00
2023-05-18T03:06:42.274Z,92971.00
2023-05-18T03:07:42.285Z,92973.00
2023-05-18T03:08:42.287Z,92973.00
2023-05-18T03:09:42.308Z,92973.00
2023-05-18T03:10:42.287Z,92971.00
2023-05-18T03:11:42.293Z,92975.00
2023-05-18T03:12:42.365Z,92971.00
2023-05-18T03:13:42.365Z,92973.00
2023-05-18T03:14:42.304Z,92973.00
2023-05-18T03:15:42.326Z,92973.00
2023-05-18T03:16:42.348Z,92975.00
2023-05-18T03:17:42.340Z,92975.00
2023-05-18T03:18:42.421Z,92973.00
2023-05-18T03:19:42.338Z,92973.00
2023-05-18T03:20:42.344Z,92971.00
2023-05-18T03:21:42.373Z,92969.00
2023-05-18T03:22:42.366Z,92969.00
2023-05-18T03:23:42.359Z,92969.00
2023-05-18T03:24:42.359Z,92971.00
2023-05-18T03:25:42.363Z,92971.00
2023-05-18T03:26:42.377Z,92971.00
2023-05-18T03:27:42.369Z,92973.00
2023-05-18T03:28:42.392Z,92971.00
2023-05-18T03:29:42.402Z,92973.00
2023-05-18T03:30:42.436Z,92973.00
2023-05-18T03:31:42.438Z,92975.00
2023-05-18T03:32:42.467Z,92977.00
2023-05-18T03:33:42.451Z,92977.00
2023-05-18T03:34:42.466Z,92973.00
2023-05-18T03:35:42.481Z,92973.00
2023-05-18T03:36:42.489Z,92975.00
2023-05-18T03:37:42.490Z,92977.00
2023-05-18T03:38:42.498Z,92973.00
2023-05-18T03:39:42.501Z,92971.00
2023-05-18T03:40:42.514Z,92973.00
2023-05-18T03:41:42.525Z,92975.00
2023-05-18T03:42:42.532Z,92975.00
2023-05-18T03:43:42.540Z,92977.00
2023-05-18T03:44:42.569Z,92977.00
2023-05-18T03:45:42.566Z,92979.00
2023-05-18T03:46:42.663Z,92979.00
2023-05-18T03:47:43.264Z,92981.00
2023-05-18T03:48:42.605Z,92983.00
2023-05-18T03:49:42.609Z,92983.00
2023-05-18T03:50:42.624Z,92975.00
2023-05-18T03:51:42.638Z,92983.00
2023-05-18T03:52:42.649Z,92985.00
2023-05-18T03:53:42.653Z,92979.00
2023-05-18T03:54:42.689Z,92981.00
2023-05-18T03:55:42.669Z,92979.00
2023-05-18T03:56:42.687Z,92977.00
2023-05-18T03:57:42.696Z,92977.00
2023-05-18T03:58:42.724Z,92977.00
2023-05-18T03:59:42.790Z,92977.00
2023-05-18T04:00:42.756Z,92975.00
2023-05-18T04:01:42.750Z,92975.00
2023-05-18T04:02:42.757Z,92973.00
2023-05-18T04:03:42.929Z,92971.00
2023-05-18T04:04:42.774Z,92973.00
2023-05-18T04:05:42.772Z,92975.00
2023-05-18T04:06:42.775Z,92977.00
2023-05-18T04:07:42.793Z,92977.00
2023-05-18T04:08:42.797Z,92979.00
2023-05-18T04:09:42.805Z,92981.00
2023-05-18T04:10:42.810Z,92979.00
2023-05-18T04:11:42.820Z,92979.00
2023-05-18T04:12:42.833Z,92981.00
2023-05-18T04:13:42.827Z,92981.00
2023-05-18T04:14:42.839Z,92987.00
2023-05-18T04:15:42.847Z,92987.00
2023-05-18T04:16:42.860Z,92983.00
2023-05-18T04:17:42.865Z,92985.00
2023-05-18T04:18:42.917Z,92985.00
2023-05-18T04:19:42.881Z,92987.00
2023-05-18T04:20:42.895Z,92985.00
2023-05-18T04:21:42.886Z,92985.00
2023-05-18T04:22:42.904Z,92985.00
2023-05-18T04:23:42.913Z,92983.00
2023-05-18T04:24:42.920Z,92983.00
2023-05-18T04:25:42.932Z,92985.00
2023-05-18T04:26:42.945Z,92983.00
2023-05-18T04:27:42.951Z,92981.00
2023-05-18T04:28:42.958Z,92981.00
2023-05-18T04:29:42.978Z,92983.00
2023-05-18T04:30:43.763Z,92985.00
2023-05-18T04:31:43.012Z,92983.00
2023-05-18T04:32:43.431Z,92983.00
2023-05-18T04:33:43.006Z,92983.00
2023-05-18T04:34:43.020Z,92985.00
2023-05-18T04:35:43.036Z,92983.00
2023-05-18T04:36:43.033Z,92981.00
2023-05-18T04:37:43.278Z,92983.00
2023-05-18T04:38:43.062Z,92983.00
2023-05-18T04:39:43.060Z,92981.00
2023-05-18T04:40:43.076Z,92985.00
2023-05-18T04:41:43.175Z,92981.00
2023-05-18T04:42:43.094Z,92983.00
2023-05-18T04:43:43.100Z,92981.00
2023-05-18T04:44:43.130Z,92983.00
2023-05-18T04:45:43.169Z,92985.00
2023-05-18T04:46:43.224Z,92981.00
2023-05-18T04:47:43.225Z,92983.00
2023-05-18T04:48:43.193Z,92983.00
2023-05-18T04:49:43.201Z,92985.00
2023-05-18T04:50:43.220Z,92983.00
2023-05-18T04:51:43.237Z,92983.00
2023-05-18T04:52:43.257Z,92981.00
2023-05-18T04:53:43.341Z,92983.00
2023-05-18T04:54:43.270Z,92985.00
2023-05-18T04:55:43.333Z,92985.00
2023-05-18T04:56:43.297Z,92985.00
2023-05-18T04:57:43.413Z,92985.00
2023-05-18T04:58:43.333Z,92985.00
2023-05-18T04:59:43.352Z,92985.00
2023-05-18T05:00:43.349Z,92987.00
2023-05-18T05:01:43.434Z,92989.00
2023-05-18T05:02:43.465Z,92987.00
2023-05-18T05:03:43.480Z,92989.00
2023-05-18T05:04:43.396Z,92989.00
2023-05-18T05:05:43.413Z,92993.00
2023-05-18T05:06:43.444Z,92989.00
2023-05-18T05:07:43.442Z,92991.00
2023-05-18T05:08:43.461Z,92991.00
2023-05-18T05:09:43.793Z,92993.00
2023-05-18T05:10:43.490Z,92989.00
2023-05-18T05:11:43.491Z,92991.00
2023-05-18T05:12:43.495Z,92989.00
2023-05-18T05:13:43.505Z,92989.00
2023-05-18T05:14:43.520Z,92991.00
2023-05-18T05:15:43.607Z,92993.00
2023-05-18T05:16:43.549Z,92991.00
2023-05-18T05:17:43.682Z,92989.00
2023-05-18T05:18:45.196Z,92993.00
2023-05-18T05:19:43.563Z,92991.00
2023-05-18T05:20:43.568Z,92991.00
2023-05-18T05:21:43.565Z,92991.00
2023-05-18T05:22:43.585Z,92993.00
2023-05-18T05:23:43.552Z,92991.00
2023-05-18T05:24:43.538Z,92989.00
2023-05-18T05:25:43.542Z,92991.00
2023-05-18T05:26:43.528Z,92993.00
2023-05-18T05:27:43.522Z,92993.00
2023-05-18T05:28:43.529Z,92995.00
2023-05-18T05:29:43.509Z,92991.00
2023-05-18T05:30:43.501Z,92991.00
2023-05-18T05:31:43.538Z,92989.00
2023-05-18T05:32:43.522Z,92989.00
2023-05-18T05:33:43.485Z,92989.00
2023-05-18T05:34:43.479Z,92989.00
2023-05-18T05:35:43.492Z,92989.00
2023-05-18T05:36:43.498Z,92991.00
2023-05-18T05:37:43.486Z,92989.00
2023-05-18T05:38:43.452Z,92987.00
2023-05-18T05:39:43.439Z,92987.00
2023-05-18T05:40:43.440Z,92989.00
2023-05-18T05:41:43.436Z,92987.00
2023-05-18T05:42:43.430Z,92989.00
2023-05-18T05:43:43.518Z,92989.00
2023-05-18T05:44:43.794Z,92987.00
2023-05-18T05:45:43.417Z,92991.00
2023-05-18T05:46:43.441Z,92991.00
2023-05-18T05:47:43.415Z,92989.00
2023-05-18T05:48:43.373Z,92993.00
2023-05-18T05:49:43.374Z,92989.00
2023-05-18T05:50:43.480Z,92993.00
2023-05-18T05:51:43.390Z,92989.00
2023-05-18T05:52:43.424Z,92991.00
2023-05-18T05:53:43.348Z,92993.00
2023-05-18T05:54:43.365Z,92993.00
2023-05-18T05:55:43.391Z,92995.00
2023-05-18T05:56:43.332Z,92993.00
2023-05-18T05:57:43.354Z,92995.00
2023-05-18T05:58:43.321Z,92995.00
2023-05-18T05:59:43.833Z,92997.00
2023-05-18T06:00:43.325Z,92995.00
2023-05-18T06:01:43.321Z,93001.00
2023-05-18T06:02:43.477Z,92997.00
2023-05-18T06:03:43.313Z,92999.00
2023-05-18T06:04:43.346Z,92995.00
2023-05-18T06:05:43.265Z,92995.00
2023-05-18T06:06:43.247Z,92995.00
2023-05-18T06:07:43.241Z,92995.00
2023-05-18T06:08:43.228Z,92995.00
2023-05-18T06:09:43.235Z,93001.00
2023-05-18T06:10:43.228Z,92997.00
2023-05-18T06:11:43.212Z,92995.00
2023-05-18T06:12:43.222Z,92997.00
2023-05-18T06:13:43.200Z,92999.00
2023-05-18T06:14:43.198Z,93007.00
2023-05-18T06:15:43.206Z,93007.00
2023-05-18T06:16:43.254Z,93003.00
2023-05-18T06:17:43.194Z,93003.00
2023-05-18T06:18:43.209Z,93003.00
2023-05-18T06:19:43.174Z,93003.00
2023-05-18T06:20:43.159Z,93005.00
2023-05-18T06:21:43.154Z,93009.00
2023-05-18T06:22:43.152Z,93009.00
2023-05-18T06:23:43.160Z,93009.00
2023-05-18T06:24:43.169Z,93011.00
2023-05-18T06:25:43.133Z,93007.00
2023-05-18T06:26:43.135Z,93009.00
2023-05-18T06:27:43.132Z,93009.00
2023-05-18T06:28:43.116Z,93009.00
2023-05-18T06:29:43.115Z,93007.00
2023-05-18T06:30:43.171Z,93007.00
2023-05-18T06:31:43.122Z,93007.00
2023-05-18T06:32:43.137Z,93011.00
2023-05-18T06:33:43.091Z,93007.00
2023-05-18T06:34:43.094Z,93009.00
2023-05-18T06:35:43.086Z,93005.00
2023-05-18T06:36:43.071Z,93009.00
2023-05-18T06:37:44.198Z,93007.00
2023-05-18T06:38:43.166Z,93007.00
2023-05-18T06:39:43.047Z,93007.00
2023-05-18T06:40:43.037Z,93011.00
2023-05-18T06:41:43.031Z,93007.00
2023-05-18T06:42:43.022Z,93007.00
2023-05-18T06:43:43.035Z,93005.00
2023-05-18T06:44:43.021Z,93003.00
2023-05-18T06:45:43.047Z,93005.00
2023-05-18T06:46:43.114Z,93005.00
2023-05-18T06:47:43.186Z,93001.00
2023-05-18T06:48:43.063Z,93003.00
2023-05-18T06:49:43.067Z,93001.00
2023-05-18T06:50:43.155Z,93003.00
2023-05-18T06:51:43.077Z,93005.00
2023-05-18T06:52:43.093Z,93005.00
2023-05-18T06:53:43.094Z,93003.00
2023-05-18T06:54:43.118Z,93003.00
2023-05-18T06:55:43.126Z,93001.00
2023-05-18T06:56:43.100Z,93001.00
2023-05-18T06:57:43.113Z,93005.00
2023-05-18T06:58:43.154Z,93001.00
2023-05-18T06:59:43.139Z,93001.00
2023-05-18T07:00:43.156Z,93001.00
2023-05-18T07:01:43.192Z,92999.00
2023-05-18T07:02:43.171Z,92999.00
2023-05-18T07:03:43.323Z,93001.00
2023-05-18T07:04:43.170Z,92997.00
2023-05-18T07:05:43.183Z,92999.00
2023-05-18T07:06:43.253Z,93003.00
2023-05-18T07:07:43.200Z,93001.00
2023-05-18T07:08:43.189Z,93003.00
2023-05-18T07:09:43.203Z,93003.00
2023-05-18T07:10:43.189Z,93005.00
2023-05-18T07:11:43.194Z,93001.00
2023-05-18T07:12:43.244Z,93003.00
2023-05-18T07:13:43.208Z,93007.00
2023-05-18T07:14:43.207Z,93007.00
2023-05-18T07:15:43.257Z,93005.00
2023-05-18T07:16:43.213Z,93003.00
2023-05-18T07:17:43.235Z,93003.00
2023-05-18T07:18:43.252Z,93003.00
2023-05-18T07:19:43.323Z,93005.00
2023-05-18T07:20:43.225Z,93003.00
2023-05-18T07:21:43.346Z,93005.00
2023-05-18T07:22:43.272Z,93005.00
2023-05-18T07:23:43.224Z,93003.00
2023-05-18T07:24:43.231Z,93003.00
2023-05-18T07:25:43.244Z,93003.00
2023-05-18T07:26:43.255Z,93003.00
2023-05-18T07:27:43.261Z,93005.00
2023-05-18T07:28:43.265Z,93005.00
2023-05-18T07:29:43.288Z,93005.00
2023-05-18T07:30:43.273Z,93003.00
2023-05-18T07:31:43.359Z,93007.00
2023-05-18T07:32:43.298Z,93007.00
2023-05-18T07:33:43.277Z,93007.00
2023-05-18T07:34:43.294Z,93005.00
2023-05-18T07:35:43.384Z,93005.00
2023-05-18T07:36:43.313Z,93007.00
2023-05-18T07:37:43.304Z,93007.00
2023-05-18T07:38:43.309Z,93005.00
2023-05-18T07:39:43.384Z,93005.00
2023-05-18T07:40:43.314Z,93003.00
2023-05-18T07:41:43.322Z,93003.00
2023-05-18T07:42:43.317Z,93001.00
2023-05-18T07:43:43.334Z,93001.00
2023-05-18T07:44:43.353Z,93001.00
2023-05-18T07:45:43.334Z,92999.00
2023-05-18T07:46:43.402Z,92999.00
2023-05-18T07:47:43.439Z,92999.00
2023-05-18T07:48:43.338Z,92999.00
2023-05-18T07:49:43.366Z,92999.00
2023-05-18T07:50:43.363Z,93001.00
2023-05-18T07:51:43.372Z,92999.00
2023-05-18T07:52:43.439Z,93001.00
2023-05-18T07:53:43.371Z,92999.00
2023-05-18T07:54:43.383Z,93001.00
2023-05-18T07:55:43.385Z,93001.00
2023-05-18T07:56:43.381Z,93001.00
2023-05-18T07:57:43.404Z,93001.00
2023-05-18T07:58:43.387Z,93003.00
2023-05-18T07:59:43.391Z,93001.00
2023-05-18T08:00:43.401Z,93001.00
2023-05-18T08:01:43.432Z,93001.00
2023-05-18T08:02:43.716Z,93001.00
2023-05-18T08:03:43.780Z,92999.00
2023-05-18T08:04:43.408Z,92997.00
2023-05-18T08:05:43.410Z,92997.00
2023-05-18T08:06:43.414Z,92995.00
2023-05-18T08:07:43.478Z,92995.00
2023-05-18T08:08:43.418Z,92995.00
2023-05-18T08:09:43.412Z,92995.00
2023-05-18T08:10:43.426Z,92999.00
2023-05-18T08:11:43.432Z,92997.00
2023-05-18T08:12:43.444Z,92997.00
2023-05-18T08:13:43.424Z,92997.00
2023-05-18T08:14:43.423Z,92999.00
2023-05-18T08:15:43.497Z,92999.00
2023-05-18T08:16:43.447Z,92999.00
2023-05-18T08:17:43.459Z,93001.00
2023-05-18T08:18:43.449Z,92999.00
2023-05-18T08:19:43.413Z,93001.00
2023-05-18T08:20:43.422Z,92999.00
2023-05-18T08:21:43.415Z,93001.00
2023-05-18T08:22:43.427Z,93001.00
2023-05-18T08:23:43.424Z,93003.00
2023-05-18T08:24:43.435Z,93003.00
2023-05-18T08:25:43.444Z,93001.00
2023-05-18T08:26:43.430Z,93005.00
2023-05-18T08:27:43.439Z,93005.00
2023-05-18T08:28:43.518Z,93007.00
2023-05-18T08:29:43.450Z,93007.00
2023-05-18T08:30:43.439Z,93009.00
2023-05-18T08:31:43.464Z,93007.00
2023-05-18T08:32:43.467Z,93007.00
2023-05-18T08:33:43.439Z,93007.00
2023-05-18T08:34:43.432Z,93007.00
2023-05-18T08:35:43.443Z,93005.00
2023-05-18T08:36:43.427Z,93007.00
2023-05-18T08:37:43.451Z,93007.00
2023-05-18T08:38:43.426Z,93005.00
2023-05-18T08:39:43.440Z,93003.00
2023-05-18T08:40:43.437Z,93003.00
2023-05-18T08:41:43.434Z,93005.00
2023-05-18T08:42:50.088Z,93003.00
2023-05-18T08:43:44.446Z,93003.00
2023-05-18T08:44:43.419Z,93007.00
2023-05-18T08:45:43.420Z,93005.00
2023-05-18T08:46:43.407Z,93005.00
2023-05-18T08:47:43.458Z,93007.00
2023-05-18T08:48:43.510Z,93009.00
2023-05-18T08:49:43.409Z,93013.00
2023-05-18T08:50:43.380Z,93009.00
2023-05-18T08:51:43.379Z,93013.00
2023-05-18T08:52:43.414Z,93013.00
2023-05-18T08:53:43.357Z,93011.00
2023-05-18T08:54:43.346Z,93011.00
2023-05-18T08:55:43.339Z,93009.00
2023-05-18T08:56:43.324Z,93005.00
2023-05-18T08:57:43.324Z,93007.00
2023-05-18T08:58:43.326Z,93007.00
2023-05-18T08:59:43.310Z,93005.00
2023-05-18T09:00:43.298Z,93005.00
2023-05-18T09:01:43.322Z,93001.00
2023-05-18T09:02:43.305Z,93003.00
2023-05-18T09:03:43.346Z,93003.00
2023-05-18T09:04:43.413Z,92997.00
2023-05-18T09:05:43.266Z,92999.00
2023-05-18T09:06:43.259Z,92997.00
2023-05-18T09:07:43.252Z,92995.00
2023-05-18T09:08:43.251Z,92995.00
2023-05-18T09:09:43.251Z,92993.00
2023-05-18T09:10:43.245Z,92991.00
2023-05-18T09:11:43.236Z,92993.00
2023-05-18T09:12:43.241Z,92993.00
2023-05-18T09:13:43.204Z,92989.00
2023-05-18T09:14:43.208Z,92991.00
2023-05-18T09:15:43.227Z,92991.00
2023-05-18T09:16:43.189Z,92991.00
2023-05-18T09:17:43.206Z,92991.00
2023-05-18T09:18:43.204Z,92989.00
2023-05-18T09:19:43.170Z,92989.00
2023-05-18T09:20:43.163Z,92991.00
2023-05-18T09:21:43.144Z,92991.00
2023-05-18T09:22:43.172Z,92993.00
2023-05-18T09:23:43.134Z,92991.00
2023-05-18T09:24:43.134Z,92991.00
2023-05-18T09:25:43.124Z,92993.00
2023-05-18T09:26:43.136Z,92993.00
2023-05-18T09:27:43.102Z,92993.00
2023-05-18T09:28:43.100Z,92991.00
2023-05-18T09:29:43.098Z,92991.00
2023-05-18T09:30:43.121Z,92993.00
2023-05-18T09:31:43.129Z,92993.00
2023-05-18T09:32:43.083Z,92991.00
2023-05-18T09:33:43.103Z,92989.00
2023-05-18T09:34:43.066Z,92991.00
2023-05-18T09:35:43.057Z,92991.00
2023-05-18T09:36:43.068Z,92991.00
2023-05-18T09:37:43.871Z,92989.00
2023-05-18T09:38:43.034Z,92989.00
2023-05-18T09:39:43.017Z,92989.00
2023-05-18T09:40:43.089Z,92989.00
2023-05-18T09:41:43.022Z,92985.00
2023-05-18T09:42:43.004Z,92985.00
2023-05-18T09:43:42.998Z,92985.00
2023-05-18T09:44:42.994Z,92985.00
2023-05-18T09:45:42.986Z,92985.00
2023-05-18T09:46:43.001Z,92991.00
2023-05-18T09:47:43.000Z,92989.00
2023-05-18T09:48:42.958Z,92989.00
2023-05-18T09:49:42.957Z,92989.00
2023-05-18T09:50:43.393Z,92983.00
2023-05-18T09:51:42.968Z,92989.00
2023-05-18T09:52:42.972Z,92989.00
2023-05-18T09:53:42.972Z,92983.00
2023-05-18T09:54:42.973Z,92983.00
2023-05-18T09:55:42.981Z,92983.00
2023-05-18T09:56:42.982Z,92983.00
2023-05-18T09:57:42.997Z,92983.00
2023-05-18T09:58:43.004Z,92981.00
2023-05-18T09:59:43.013Z,92981.00
2023-05-18T10:00:43.063Z,92979.00
2023-05-18T10:01:43.035Z,92981.00
2023-05-18T10:02:43.153Z,92981.00
2023-05-18T10:03:43.071Z,92983.00
2023-05-18T10:04:43.256Z,92979.00
2023-05-18T10:05:43.058Z,92983.00
2023-05-18T10:06:43.074Z,92981.00
2023-05-18T10:07:43.140Z,92983.00
2023-05-18T10:08:43.085Z,92983.00
2023-05-18T10:09:43.083Z,92983.00
2023-05-18T10:10:43.091Z,92981.00
2023-05-18T10:11:43.902Z,92979.00
2023-05-18T10:12:43.086Z,92977.00
2023-05-18T10:13:43.073Z,92975.00
2023-05-18T10:14:43.091Z,92973.00
2023-05-18T10:15:43.086Z,92975.00
2023-05-18T10:16:43.124Z,92977.00
2023-05-18T10:17:43.211Z,92971.00
2023-05-18T10:18:43.131Z,92973.00
2023-05-18T10:19:43.088Z,92975.00
2023-05-18T10:20:43.089Z,92975.00
2023-05-18T10:21:43.094Z,92971.00
2023-05-18T10:22:43.082Z,92973.00
2023-05-18T10:23:43.082Z,92971.00
2023-05-18T10:24:43.086Z,92971.00
2023-05-18T10:25:43.080Z,92971.00
2023-05-18T10:26:43.070Z,92969.00
2023-05-18T10:27:43.083Z,92969.00
2023-05-18T10:28:43.082Z,92969.00
2023-05-18T10:29:43.094Z,92971.00
2023-05-18T10:30:43.275Z,92971.00
2023-05-18T10:31:43.120Z,92969.00
2023-05-18T10:32:43.208Z,92973.00
2023-05-18T10:33:43.134Z,92969.00
2023-05-18T10:34:43.920Z,92973.00
2023-05-18T10:35:43.169Z,92969.00
2023-05-18T10:36:43.187Z,92971.00
2023-05-18T10:37:43.178Z,92971.00
2023-05-18T10:38:43.185Z,92971.00
2023-05-18T10:39:43.176Z,92971.00
2023-05-18T10:40:43.188Z,92973.00
2023-05-18T10:41:43.174Z,92973.00
2023-05-18T10:42:45.905Z,92975.00
2023-05-18T10:43:43.188Z,92973.00
2023-05-18T10:44:43.175Z,92977.00
2023-05-18T10:45:43.170Z,92977.00
2023-05-18T10:46:43.192Z,92977.00
2023-05-18T10:47:43.360Z,92971.00
2023-05-18T10:48:44.324Z,92973.00
2023-05-18T10:49:43.912Z,92973.00
2023-05-18T10:50:43.133Z,92971.00
2023-05-18T10:51:43.123Z,92971.00
2023-05-18T10:52:43.122Z,92971.00
2023-05-18T10:53:43.108Z,92971.00
2023-05-18T10:54:43.099Z,92971.00
2023-05-18T10:55:43.110Z,92969.00
2023-05-18T10:56:43.081Z,92971.00
2023-05-18T10:57:43.080Z,92967.00
2023-05-18T10:58:43.077Z,92967.00
2023-05-18T10:59:43.281Z,92965.00
2023-05-18T11:00:43.062Z,92965.00
2023-05-18T11:01:43.126Z,92963.00
2023-05-18T11:02:43.330Z,92965.00
2023-05-18T11:03:43.933Z,92962.00
2023-05-18T11:04:43.101Z,92962.00
2023-05-18T11:05:43.030Z,92962.00
2023-05-18T11:06:43.019Z,92960.00
2023-05-18T11:07:43.010Z,92962.00
2023-05-18T11:08:43.003Z,92960.00
2023-05-18T11:09:43.001Z,92962.00
2023-05-18T11:10:43.010Z,92960.00
2023-05-18T11:11:42.989Z,92958.00
2023-05-18T11:12:42.970Z,92958.00
2023-05-18T11:13:42.988Z,92958.00
2023-05-18T11:14:42.963Z,92958.00
2023-05-18T11:15:43.085Z,92958.00
2023-05-18T11:16:42.960Z,92960.00
2023-05-18T11:17:42.981Z,92958.00
2023-05-18T11:18:43.064Z,92958.00
2023-05-18T11:19:43.058Z,92956.00
2023-05-18T11:20:43.022Z,92954.00
2023-05-18T11:21:43.040Z,92954.00
2023-05-18T11:22:43.053Z,92954.00
2023-05-18T11:23:43.065Z,92952.00
2023-05-18T11:24:43.067Z,92954.00
2023-05-18T11:25:43.076Z,92956.00
2023-05-18T11:26:43.086Z,92952.00
2023-05-18T11:27:43.082Z,92956.00
2023-05-18T11:28:43.087Z,92954.00
2023-05-18T11:29:43.113Z,92954.00
2023-05-18T11:30:43.118Z,92954.00
2023-05-18T11:31:43.182Z,92954.00
2023-05-18T11:32:43.281Z,92952.00
2023-05-18T11:33:43.298Z,92954.00
2023-05-18T11:34:43.293Z,92956.00
2023-05-18T11:35:43.377Z,92956.00
2023-05-18T11:36:43.380Z,92954.00
2023-05-18T11:37:43.430Z,92952.00
2023-05-18T11:38:43.486Z,92952.00
2023-05-18T11:39:55.326Z,92952.00
2023-05-18T11:40:44.520Z,92952.00
2023-05-18T11:41:43.512Z,92952.00
2023-05-18T11:42:43.500Z,92950.00
2023-05-18T11:43:43.502Z,92950.00
2023-05-18T11:44:43.484Z,92952.00